sensor_id;sensor_type;location;lat;lon;timestamp;pressure;altitude;pressure_sealevel;temperature;humidity
56630;BME280;42502;40.732;-74.254;2022-10-16T00:00:18;100530.66;;;26.15;37.48
56630;BME280;42502;40.732;-74.254;2022-10-16T00:02:19;100531.88;;;26.14;37.53
56630;BME280;42502;40.732;-74.254;2022-10-16T00:04:19;100533.91;;;26.13;37.34
56630;BME280;42502;40.732;-74.254;2022-10-16T00:06:21;100536.72;;;26.13;37.34
56630;BME280;42502;40.732;-74.254;2022-10-16T00:08:21;100533.47;;;26.11;37.52
56630;BME280;42502;40.732;-74.254;2022-10-16T00:10:22;100530.63;;;26.11;37.65
56630;BME280;42502;40.732;-74.254;2022-10-16T00:12:23;100524.16;;;26.11;37.26
56630;BME280;42502;40.732;-74.254;2022-10-16T00:14:23;100534.69;;;26.10;37.42
56630;BME280;42502;40.732;-74.254;2022-10-16T00:16:27;100522.13;;;26.08;37.63
56630;BME280;42502;40.732;-74.254;2022-10-16T00:18:27;100536.28;;;26.08;37.59
56630;BME280;42502;40.732;-74.254;2022-10-16T00:20:33;100523.34;;;26.06;37.36
56630;BME280;42502;40.732;-74.254;2022-10-16T00:22:34;100531.81;;;26.06;37.51
56630;BME280;42502;40.732;-74.254;2022-10-16T00:24:34;100530.22;;;26.05;37.37
56630;BME280;42502;40.732;-74.254;2022-10-16T00:26:36;100525.75;;;26.04;37.65
56630;BME280;42502;40.732;-74.254;2022-10-16T00:28:36;100532.63;;;26.03;37.34
56630;BME280;42502;40.732;-74.254;2022-10-16T00:30:38;100534.25;;;26.04;37.33
56630;BME280;42502;40.732;-74.254;2022-10-16T00:32:38;100530.97;;;26.02;37.54
56630;BME280;42502;40.732;-74.254;2022-10-16T00:34:39;100542.31;;;26.02;37.27
56630;BME280;42502;40.732;-74.254;2022-10-16T00:36:39;100540.69;;;26.01;37.39
56630;BME280;42502;40.732;-74.254;2022-10-16T00:38:43;100543.94;;;26.00;37.54
56630;BME280;42502;40.732;-74.254;2022-10-16T00:40:44;100542.28;;;25.99;37.25
56630;BME280;42502;40.732;-74.254;2022-10-16T00:42:44;100545.94;;;25.99;37.54
56630;BME280;42502;40.732;-74.254;2022-10-16T00:46:49;100553.97;;;25.97;37.21
56630;BME280;42502;40.732;-74.254;2022-10-16T00:48:57;100553.19;;;25.97;37.42
56630;BME280;42502;40.732;-74.254;2022-10-16T00:51:02;100555.19;;;25.96;37.38
56630;BME280;42502;40.732;-74.254;2022-10-16T00:53:04;100562.06;;;25.95;37.18
56630;BME280;42502;40.732;-74.254;2022-10-16T00:55:05;100561.63;;;25.93;37.32
56630;BME280;42502;40.732;-74.254;2022-10-16T00:57:06;100558.78;;;25.93;37.43
56630;BME280;42502;40.732;-74.254;2022-10-16T00:59:11;100565.69;;;25.92;37.53
56630;BME280;42502;40.732;-74.254;2022-10-16T01:01:15;100562.84;;;25.92;37.33
56630;BME280;42502;40.732;-74.254;2022-10-16T01:03:49;100552.72;;;25.91;37.25
56630;BME280;42502;40.732;-74.254;2022-10-16T01:05:44;100553.94;;;25.90;37.39
56630;BME280;42502;40.732;-74.254;2022-10-16T01:09:51;100553.53;;;25.88;37.41
56630;BME280;42502;40.732;-74.254;2022-10-16T01:14:22;100557.53;;;25.87;37.53
56630;BME280;42502;40.732;-74.254;2022-10-16T01:16:36;100559.16;;;25.84;37.28
56630;BME280;42502;40.732;-74.254;2022-10-16T01:18:43;100558.34;;;25.84;37.38
56630;BME280;42502;40.732;-74.254;2022-10-16T01:20:51;100556.72;;;25.83;37.22
56630;BME280;42502;40.732;-74.254;2022-10-16T01:24:57;100561.16;;;25.80;37.17
56630;BME280;42502;40.732;-74.254;2022-10-16T01:27:10;100568.84;;;25.80;37.58
56630;BME280;42502;40.732;-74.254;2022-10-16T01:29:14;100557.09;;;25.78;37.42
56630;BME280;42502;40.732;-74.254;2022-10-16T01:31:22;100568.41;;;25.78;37.42
56630;BME280;42502;40.732;-74.254;2022-10-16T01:33:26;100570.44;;;25.77;37.26
56630;BME280;42502;40.732;-74.254;2022-10-16T01:35:36;100575.28;;;25.77;37.46
56630;BME280;42502;40.732;-74.254;2022-10-16T01:37:40;100572.84;;;25.75;37.36
56630;BME280;42502;40.732;-74.254;2022-10-16T01:39:42;100573.25;;;25.74;37.45
56630;BME280;42502;40.732;-74.254;2022-10-16T01:41:47;100580.91;;;25.73;37.40
56630;BME280;42502;40.732;-74.254;2022-10-16T01:43:53;100578.47;;;25.71;37.27
56630;BME280;42502;40.732;-74.254;2022-10-16T01:45:56;100577.66;;;25.71;37.00
56630;BME280;42502;40.732;-74.254;2022-10-16T01:47:57;100578.84;;;25.70;37.31
56630;BME280;42502;40.732;-74.254;2022-10-16T01:50:01;100582.88;;;25.69;37.36
56630;BME280;42502;40.732;-74.254;2022-10-16T01:52:05;100584.91;;;25.68;37.22
56630;BME280;42502;40.732;-74.254;2022-10-16T01:54:06;100579.63;;;25.67;37.32
56630;BME280;42502;40.732;-74.254;2022-10-16T01:56:09;100582.84;;;25.65;37.58
56630;BME280;42502;40.732;-74.254;2022-10-16T01:58:11;100582.06;;;25.65;37.27
56630;BME280;42502;40.732;-74.254;2022-10-16T02:00:13;100584.06;;;25.64;37.41
56630;BME280;42502;40.732;-74.254;2022-10-16T02:02:14;100581.63;;;25.63;37.31
56630;BME280;42502;40.732;-74.254;2022-10-16T02:04:20;100589.31;;;25.62;37.48
56630;BME280;42502;40.732;-74.254;2022-10-16T02:06:23;100586.47;;;25.62;37.24
56630;BME280;42502;40.732;-74.254;2022-10-16T02:08:25;100584.03;;;25.61;37.28
56630;BME280;42502;40.732;-74.254;2022-10-16T02:10:28;100592.91;;;25.59;37.39
56630;BME280;42502;40.732;-74.254;2022-10-16T02:12:34;100589.28;;;25.59;37.14
56630;BME280;42502;40.732;-74.254;2022-10-16T02:14:37;100598.97;;;25.58;37.47
56630;BME280;42502;40.732;-74.254;2022-10-16T02:16:42;100592.50;;;25.57;37.29
56630;BME280;42502;40.732;-74.254;2022-10-16T02:18:43;100590.88;;;25.56;37.28
56630;BME280;42502;40.732;-74.254;2022-10-16T02:20:57;100592.06;;;25.55;37.05
56630;BME280;42502;40.732;-74.254;2022-10-16T02:23:07;100593.28;;;25.54;37.43
56630;BME280;42502;40.732;-74.254;2022-10-16T02:25:19;100493.25;;;24.83;37.39
56630;BME280;42502;40.732;-74.254;2022-10-16T02:29:46;100596.06;;;25.50;37.52
56630;BME280;42502;40.732;-74.254;2022-10-16T02:31:50;100594.47;;;25.49;37.25
56630;BME280;42502;40.732;-74.254;2022-10-16T02:33:54;100596.47;;;25.49;37.23
56630;BME280;42502;40.732;-74.254;2022-10-16T02:35:56;100593.22;;;25.47;37.28
56630;BME280;42502;40.732;-74.254;2022-10-16T02:37:57;100596.03;;;25.47;37.09
56630;BME280;42502;40.732;-74.254;2022-10-16T02:39:58;100594.41;;;25.46;37.40
56630;BME280;42502;40.732;-74.254;2022-10-16T02:41:59;100596.44;;;25.45;37.12
56630;BME280;42502;40.732;-74.254;2022-10-16T02:44:00;100591.16;;;25.44;37.16
56630;BME280;42502;40.732;-74.254;2022-10-16T02:46:00;100595.19;;;25.43;37.21
56630;BME280;42502;40.732;-74.254;2022-10-16T02:48:01;100590.75;;;25.42;37.03
56630;BME280;42502;40.732;-74.254;2022-10-16T02:50:02;100589.13;;;25.41;37.08
56630;BME280;42502;40.732;-74.254;2022-10-16T02:52:05;100584.66;;;25.40;37.05
56630;BME280;42502;40.732;-74.254;2022-10-16T02:54:06;100583.03;;;25.39;37.02
56630;BME280;42502;40.732;-74.254;2022-10-16T02:56:06;100576.56;;;25.38;37.24
56630;BME280;42502;40.732;-74.254;2022-10-16T02:58:07;100574.94;;;25.37;37.03
56630;BME280;42502;40.732;-74.254;2022-10-16T03:00:09;100579.78;;;25.36;37.41
56630;BME280;42502;40.732;-74.254;2022-10-16T03:02:10;100576.16;;;25.36;37.23
56630;BME280;42502;40.732;-74.254;2022-10-16T03:04:13;100579.38;;;25.34;37.04
56630;BME280;42502;40.732;-74.254;2022-10-16T03:06:26;100574.13;;;25.33;37.06
56630;BME280;42502;40.732;-74.254;2022-10-16T03:08:26;100576.09;;;25.32;37.14
56630;BME280;42502;40.732;-74.254;2022-10-16T03:10:27;100574.50;;;25.31;37.12
56630;BME280;42502;40.732;-74.254;2022-10-16T03:12:28;100565.56;;;25.29;37.07
56630;BME280;42502;40.732;-74.254;2022-10-16T03:14:29;100571.22;;;25.29;37.16
56630;BME280;42502;40.732;-74.254;2022-10-16T03:16:29;100576.06;;;25.29;37.10
56630;BME280;42502;40.732;-74.254;2022-10-16T03:18:30;100579.28;;;25.27;37.24
56630;BME280;42502;40.732;-74.254;2022-10-16T03:20:31;100580.06;;;25.28;36.96
56630;BME280;42502;40.732;-74.254;2022-10-16T03:22:34;100578.84;;;25.25;37.12
56630;BME280;42502;40.732;-74.254;2022-10-16T03:24:34;100574.81;;;25.26;37.28
56630;BME280;42502;40.732;-74.254;2022-10-16T03:26:35;100577.22;;;25.24;37.12
56630;BME280;42502;40.732;-74.254;2022-10-16T03:28:36;100569.94;;;25.23;37.09
56630;BME280;42502;40.732;-74.254;2022-10-16T03:30:36;100573.16;;;25.22;37.32
56630;BME280;42502;40.732;-74.254;2022-10-16T03:32:37;100566.69;;;25.21;36.90
56630;BME280;42502;40.732;-74.254;2022-10-16T03:34:37;100571.53;;;25.21;37.18
56630;BME280;42502;40.732;-74.254;2022-10-16T03:36:38;100567.88;;;25.20;36.99
56630;BME280;42502;40.732;-74.254;2022-10-16T03:38:38;100563.44;;;25.19;36.99
56630;BME280;42502;40.732;-74.254;2022-10-16T03:40:39;100561.81;;;25.18;37.38
56630;BME280;42502;40.732;-74.254;2022-10-16T03:42:42;100566.66;;;25.17;37.14
56630;BME280;42502;40.732;-74.254;2022-10-16T03:44:43;100563.00;;;25.17;37.09
56630;BME280;42502;40.732;-74.254;2022-10-16T03:46:43;100564.22;;;25.16;37.02
56630;BME280;42502;40.732;-74.254;2022-10-16T03:48:44;100558.56;;;25.16;37.00
56630;BME280;42502;40.732;-74.254;2022-10-16T03:50:44;100563.78;;;25.14;36.97
56630;BME280;42502;40.732;-74.254;2022-10-16T03:52:46;100555.31;;;25.14;37.07
56630;BME280;42502;40.732;-74.254;2022-10-16T03:54:46;100555.69;;;25.12;37.00
56630;BME280;42502;40.732;-74.254;2022-10-16T03:56:47;100552.06;;;25.12;37.00
56630;BME280;42502;40.732;-74.254;2022-10-16T03:58:48;100556.09;;;25.11;36.98
56630;BME280;42502;40.732;-74.254;2022-10-16T04:00:50;100545.97;;;25.10;37.09
56630;BME280;42502;40.732;-74.254;2022-10-16T04:02:51;100540.72;;;25.08;37.12
56630;BME280;42502;40.732;-74.254;2022-10-16T04:04:52;100551.22;;;25.08;36.95
56630;BME280;42502;40.732;-74.254;2022-10-16T04:06:52;100544.75;;;25.07;36.97
56630;BME280;42502;40.732;-74.254;2022-10-16T04:08:56;100545.94;;;25.06;36.93
56630;BME280;42502;40.732;-74.254;2022-10-16T04:10:59;100546.34;;;25.05;36.97
56630;BME280;42502;40.732;-74.254;2022-10-16T04:13:00;100547.53;;;25.04;36.97
56630;BME280;42502;40.732;-74.254;2022-10-16T04:15:00;100541.88;;;25.04;36.93
56630;BME280;42502;40.732;-74.254;2022-10-16T04:17:01;100550.75;;;25.02;36.93
56630;BME280;42502;40.732;-74.254;2022-10-16T04:19:01;100547.13;;;25.01;37.16
56630;BME280;42502;40.732;-74.254;2022-10-16T04:21:03;100551.13;;;25.00;37.15
56630;BME280;42502;40.732;-74.254;2022-10-16T04:23:04;100555.19;;;24.99;37.04
56630;BME280;42502;40.732;-74.254;2022-10-16T04:25:04;100552.34;;;24.99;36.89
56630;BME280;42502;40.732;-74.254;2022-10-16T04:27:05;100557.19;;;24.99;36.97
56630;BME280;42502;40.732;-74.254;2022-10-16T04:29:05;100556.75;;;24.97;36.97
56630;BME280;42502;40.732;-74.254;2022-10-16T04:31:07;100561.59;;;24.96;36.85
56630;BME280;42502;40.732;-74.254;2022-10-16T04:33:08;100554.31;;;24.95;36.86
56630;BME280;42502;40.732;-74.254;2022-10-16T04:35:09;100547.88;;;24.95;37.17
56630;BME280;42502;40.732;-74.254;2022-10-16T04:37:10;100543.41;;;24.94;37.06
56630;BME280;42502;40.732;-74.254;2022-10-16T04:39:10;100549.44;;;24.92;37.14
56630;BME280;42502;40.732;-74.254;2022-10-16T04:41:11;100548.66;;;24.92;36.98
56630;BME280;42502;40.732;-74.254;2022-10-16T04:43:11;100550.22;;;24.89;37.00
56630;BME280;42502;40.732;-74.254;2022-10-16T04:45:12;100546.22;;;24.90;36.81
56630;BME280;42502;40.732;-74.254;2022-10-16T04:47:12;100551.03;;;24.90;36.92
56630;BME280;42502;40.732;-74.254;2022-10-16T04:49:13;100543.31;;;24.87;36.82
56630;BME280;42502;40.732;-74.254;2022-10-16T04:51:14;100546.97;;;24.87;36.76
56630;BME280;42502;40.732;-74.254;2022-10-16T04:53:14;100545.34;;;24.86;36.92
56630;BME280;42502;40.732;-74.254;2022-10-16T04:55:15;100545.34;;;24.86;36.80
56630;BME280;42502;40.732;-74.254;2022-10-16T04:57:16;100546.53;;;24.85;36.76
56630;BME280;42502;40.732;-74.254;2022-10-16T04:59:17;100540.09;;;24.85;36.83
56630;BME280;42502;40.732;-74.254;2022-10-16T05:01:18;100544.50;;;24.82;37.04
56630;BME280;42502;40.732;-74.254;2022-10-16T05:03:21;100542.88;;;24.81;36.87
56630;BME280;42502;40.732;-74.254;2022-10-16T05:05:31;100549.72;;;24.80;36.86
56630;BME280;42502;40.732;-74.254;2022-10-16T05:07:31;100545.25;;;24.79;37.11
56630;BME280;42502;40.732;-74.254;2022-10-16T05:09:32;100547.28;;;24.78;37.00
56630;BME280;42502;40.732;-74.254;2022-10-16T05:11:32;100547.66;;;24.77;37.00
56630;BME280;42502;40.732;-74.254;2022-10-16T05:13:33;100554.50;;;24.76;37.02
56630;BME280;42502;40.732;-74.254;2022-10-16T05:15:33;100548.44;;;24.74;36.82
56630;BME280;42502;40.732;-74.254;2022-10-16T05:17:34;100545.63;;;24.74;37.02
56630;BME280;42502;40.732;-74.254;2022-10-16T05:19:34;100549.63;;;24.73;36.81
56630;BME280;42502;40.732;-74.254;2022-10-16T05:21:35;100545.19;;;24.72;36.94
56630;BME280;42502;40.732;-74.254;2022-10-16T05:23:35;100543.56;;;24.71;37.00
56630;BME280;42502;40.732;-74.254;2022-10-16T05:25:36;100539.09;;;24.70;37.13
56630;BME280;42502;40.732;-74.254;2022-10-16T05:27:37;100540.31;;;24.69;37.04
56630;BME280;42502;40.732;-74.254;2022-10-16T05:29:37;100534.66;;;24.69;36.95
56630;BME280;42502;40.732;-74.254;2022-10-16T05:31:38;100538.69;;;24.68;37.05
56630;BME280;42502;40.732;-74.254;2022-10-16T05:33:38;100529.78;;;24.65;36.99
56630;BME280;42502;40.732;-74.254;2022-10-16T05:35:39;100535.44;;;24.65;36.86
56630;BME280;42502;40.732;-74.254;2022-10-16T05:37:39;100536.63;;;24.64;36.89
56630;BME280;42502;40.732;-74.254;2022-10-16T05:39:40;100530.16;;;24.64;37.10
56630;BME280;42502;40.732;-74.254;2022-10-16T05:41:40;100534.19;;;24.63;36.97
56630;BME280;42502;40.732;-74.254;2022-10-16T05:43:41;100546.69;;;24.62;36.81
56630;BME280;42502;40.732;-74.254;2022-10-16T05:45:42;100545.88;;;24.61;37.04
56630;BME280;42502;40.732;-74.254;2022-10-16T05:47:42;100542.22;;;24.61;36.80
56630;BME280;42502;40.732;-74.254;2022-10-16T05:49:43;100531.31;;;24.59;36.87
56630;BME280;42502;40.732;-74.254;2022-10-16T05:51:43;100536.16;;;24.59;37.00
56630;BME280;42502;40.732;-74.254;2022-10-16T05:53:44;100531.72;;;24.58;36.85
56630;BME280;42502;40.732;-74.254;2022-10-16T05:55:51;100545.00;;;24.57;37.09
56630;BME280;42502;40.732;-74.254;2022-10-16T05:57:53;100549.00;;;24.56;36.84
56630;BME280;42502;40.732;-74.254;2022-10-16T05:59:54;100538.94;;;24.55;37.14
56630;BME280;42502;40.732;-74.254;2022-10-16T06:01:54;100545.75;;;24.54;37.02
56630;BME280;42502;40.732;-74.254;2022-10-16T06:03:55;100539.31;;;24.54;36.96
56630;BME280;42502;40.732;-74.254;2022-10-16T06:05:58;100536.50;;;24.54;36.89
56630;BME280;42502;40.732;-74.254;2022-10-16T06:07:59;100519.09;;;24.52;36.82
56630;BME280;42502;40.732;-74.254;2022-10-16T06:09:59;100513.44;;;24.52;36.89
56630;BME280;42502;40.732;-74.254;2022-10-16T06:12:03;100515.47;;;24.51;36.86
56630;BME280;42502;40.732;-74.254;2022-10-16T06:14:03;100498.13;;;24.49;37.01
56630;BME280;42502;40.732;-74.254;2022-10-16T06:16:07;100506.59;;;24.49;36.93
56630;BME280;42502;40.732;-74.254;2022-10-16T06:18:08;100499.31;;;24.48;36.83
56630;BME280;42502;40.732;-74.254;2022-10-16T06:20:09;100499.31;;;24.48;36.85
56630;BME280;42502;40.732;-74.254;2022-10-16T06:22:09;100498.84;;;24.46;36.99
56630;BME280;42502;40.732;-74.254;2022-10-16T06:24:10;100500.88;;;24.45;37.07
56630;BME280;42502;40.732;-74.254;2022-10-16T06:26:12;100502.91;;;24.45;36.94
56630;BME280;42502;40.732;-74.254;2022-10-16T06:28:14;100497.25;;;24.45;37.08
56630;BME280;42502;40.732;-74.254;2022-10-16T06:30:14;100506.09;;;24.43;36.89
56630;BME280;42502;40.732;-74.254;2022-10-16T06:32:15;100503.66;;;24.42;36.80
56630;BME280;42502;40.732;-74.254;2022-10-16T06:34:16;100511.31;;;24.41;36.81
56630;BME280;42502;40.732;-74.254;2022-10-16T06:36:16;100509.69;;;24.40;37.14
56630;BME280;42502;40.732;-74.254;2022-10-16T06:38:17;100500.41;;;24.40;36.91
56630;BME280;42502;40.732;-74.254;2022-10-16T06:40:17;100504.44;;;24.39;36.97
56630;BME280;42502;40.732;-74.254;2022-10-16T06:42:21;100521.38;;;24.39;36.92
56630;BME280;42502;40.732;-74.254;2022-10-16T06:44:21;100487.88;;;24.37;36.81
56630;BME280;42502;40.732;-74.254;2022-10-16T06:46:23;100493.91;;;24.36;36.84
56630;BME280;42502;40.732;-74.254;2022-10-16T06:48:24;100512.84;;;24.35;36.83
56630;BME280;42502;40.732;-74.254;2022-10-16T06:50:24;100505.59;;;24.34;37.12
56630;BME280;42502;40.732;-74.254;2022-10-16T06:52:27;100503.97;;;24.33;36.97
56630;BME280;42502;40.732;-74.254;2022-10-16T06:54:28;100499.50;;;24.32;37.04
56630;BME280;42502;40.732;-74.254;2022-10-16T06:56:28;100511.63;;;24.33;37.01
56630;BME280;42502;40.732;-74.254;2022-10-16T06:58:32;100505.53;;;24.30;36.91
56630;BME280;42502;40.732;-74.254;2022-10-16T07:00:32;100508.34;;;24.30;36.99
56630;BME280;42502;40.732;-74.254;2022-10-16T07:02:33;100497.44;;;24.29;36.81
56630;BME280;42502;40.732;-74.254;2022-10-16T07:04:35;100509.97;;;24.28;36.89
56630;BME280;42502;40.732;-74.254;2022-10-16T07:06:42;100513.97;;;24.27;36.94
56630;BME280;42502;40.732;-74.254;2022-10-16T07:08:43;100515.16;;;24.26;36.82
56630;BME280;42502;40.732;-74.254;2022-10-16T07:10:47;100522.81;;;24.25;36.88
56630;BME280;42502;40.732;-74.254;2022-10-16T07:12:47;100523.22;;;24.24;36.99
56630;BME280;42502;40.732;-74.254;2022-10-16T07:14:48;100524.38;;;24.23;36.85
56630;BME280;42502;40.732;-74.254;2022-10-16T07:16:49;100513.47;;;24.21;36.90
56630;BME280;42502;40.732;-74.254;2022-10-16T07:18:49;100522.78;;;24.22;37.11
56630;BME280;42502;40.732;-74.254;2022-10-16T07:21:05;100517.53;;;24.20;36.80
56630;BME280;42502;40.732;-74.254;2022-10-16T07:23:05;100516.69;;;24.20;37.04
56630;BME280;42502;40.732;-74.254;2022-10-16T07:25:06;100513.06;;;24.19;36.85
56630;BME280;42502;40.732;-74.254;2022-10-16T07:27:06;100509.44;;;24.19;36.88
56630;BME280;42502;40.732;-74.254;2022-10-16T07:29:17;100509.78;;;24.17;36.86
56630;BME280;42502;40.732;-74.254;2022-10-16T07:31:18;100495.25;;;24.15;36.85
56630;BME280;42502;40.732;-74.254;2022-10-16T07:33:22;100496.44;;;24.14;36.88
56630;BME280;42502;40.732;-74.254;2022-10-16T07:35:23;100497.28;;;24.15;37.15
56630;BME280;42502;40.732;-74.254;2022-10-16T07:37:23;100497.66;;;24.13;36.90
56630;BME280;42502;40.732;-74.254;2022-10-16T07:39:24;100493.22;;;24.12;36.90
56630;BME280;42502;40.732;-74.254;2022-10-16T07:41:30;100493.59;;;24.10;37.08
56630;BME280;42502;40.732;-74.254;2022-10-16T07:43:35;100491.97;;;24.09;36.94
56630;BME280;42502;40.732;-74.254;2022-10-16T07:45:36;100487.53;;;24.08;36.99
56630;BME280;42502;40.732;-74.254;2022-10-16T07:47:36;100486.69;;;24.08;37.05
56630;BME280;42502;40.732;-74.254;2022-10-16T07:49:37;100480.63;;;24.06;36.86
56630;BME280;42502;40.732;-74.254;2022-10-16T07:51:40;100477.81;;;24.06;36.83
56630;BME280;42502;40.732;-74.254;2022-10-16T07:53:41;100466.09;;;24.04;37.06
56630;BME280;42502;40.732;-74.254;2022-10-16T07:55:58;100477.41;;;24.04;37.05
56630;BME280;42502;40.732;-74.254;2022-10-16T07:57:58;100473.75;;;24.03;37.00
56630;BME280;42502;40.732;-74.254;2022-10-16T07:59:59;100476.94;;;24.02;36.92
56630;BME280;42502;40.732;-74.254;2022-10-16T08:02:02;100476.94;;;24.02;37.07
56630;BME280;42502;40.732;-74.254;2022-10-16T08:04:03;100468.88;;;24.00;36.94
56630;BME280;42502;40.732;-74.254;2022-10-16T08:06:04;100470.88;;;24.00;37.09
56630;BME280;42502;40.732;-74.254;2022-10-16T08:08:05;100475.72;;;23.99;36.92
56630;BME280;42502;40.732;-74.254;2022-10-16T08:10:05;100462.81;;;23.98;36.79
56630;BME280;42502;40.732;-74.254;2022-10-16T08:12:06;100471.66;;;23.97;36.96
56630;BME280;42502;40.732;-74.254;2022-10-16T08:14:07;100468.03;;;23.96;36.80
56630;BME280;42502;40.732;-74.254;2022-10-16T08:16:08;100461.56;;;23.95;37.05
56630;BME280;42502;40.732;-74.254;2022-10-16T08:18:10;100458.72;;;23.95;36.92
56630;BME280;42502;40.732;-74.254;2022-10-16T08:20:11;100460.75;;;23.95;36.93
56630;BME280;42502;40.732;-74.254;2022-10-16T08:22:11;100458.31;;;23.93;37.05
56630;BME280;42502;40.732;-74.254;2022-10-16T08:24:12;100453.84;;;23.92;36.91
56630;BME280;42502;40.732;-74.254;2022-10-16T08:26:12;100462.31;;;23.92;36.93
56630;BME280;42502;40.732;-74.254;2022-10-16T08:28:13;100451.41;;;23.91;36.87
56630;BME280;42502;40.732;-74.254;2022-10-16T08:30:14;100456.25;;;23.90;36.92
56630;BME280;42502;40.732;-74.254;2022-10-16T08:32:15;100451.78;;;23.89;37.04
56630;BME280;42502;40.732;-74.254;2022-10-16T08:34:16;100449.34;;;23.88;37.07
56630;BME280;42502;40.732;-74.254;2022-10-16T08:36:16;100448.56;;;23.87;36.92
56630;BME280;42502;40.732;-74.254;2022-10-16T08:38:17;100447.75;;;23.87;37.03
56630;BME280;42502;40.732;-74.254;2022-10-16T08:47:16;100446.84;;;23.83;36.88
56630;BME280;42502;40.732;-74.254;2022-10-16T08:49:17;100446.03;;;23.82;37.04
56630;BME280;42502;40.732;-74.254;2022-10-16T08:51:19;100448.84;;;23.82;37.04
56630;BME280;42502;40.732;-74.254;2022-10-16T08:53:22;100447.25;;;23.81;37.05
56630;BME280;42502;40.732;-74.254;2022-10-16T08:57:25;100452.44;;;23.79;36.96
56630;BME280;42502;40.732;-74.254;2022-10-16T08:59:27;100453.66;;;23.78;36.90
56630;BME280;42502;40.732;-74.254;2022-10-16T09:01:37;100453.19;;;23.76;37.16
56630;BME280;42502;40.732;-74.254;2022-10-16T09:08:10;100464.84;;;23.74;36.96
56630;BME280;42502;40.732;-74.254;2022-10-16T09:14:45;100459.97;;;23.71;37.05
56630;BME280;42502;40.732;-74.254;2022-10-16T09:16:57;100458.38;;;23.70;36.89
56630;BME280;42502;40.732;-74.254;2022-10-16T09:25:16;100467.59;;;23.67;37.10
56630;BME280;42502;40.732;-74.254;2022-10-16T09:27:20;100469.59;;;23.67;37.11
56630;BME280;42502;40.732;-74.254;2022-10-16T09:29:21;100476.44;;;23.66;37.05
56630;BME280;42502;40.732;-74.254;2022-10-16T09:31:22;100477.63;;;23.65;36.82
56630;BME280;42502;40.732;-74.254;2022-10-16T09:33:27;100481.63;;;23.64;37.13
56630;BME280;42502;40.732;-74.254;2022-10-16T09:37:33;100476.38;;;23.62;36.92
56630;BME280;42502;40.732;-74.254;2022-10-16T09:39:50;100476.38;;;23.62;37.21
56630;BME280;42502;40.732;-74.254;2022-10-16T09:41:51;100481.19;;;23.62;37.00
56630;BME280;42502;40.732;-74.254;2022-10-16T09:43:53;100473.94;;;23.60;37.07
56630;BME280;42502;40.732;-74.254;2022-10-16T09:45:55;100486.81;;;23.58;36.95
56630;BME280;42502;40.732;-74.254;2022-10-16T09:47:56;100479.16;;;23.58;37.04
56630;BME280;42502;40.732;-74.254;2022-10-16T09:49:58;100486.81;;;23.58;36.82
56630;BME280;42502;40.732;-74.254;2022-10-16T09:52:19;100490.00;;;23.56;37.18
56630;BME280;42502;40.732;-74.254;2022-10-16T09:54:20;100499.66;;;23.55;37.10
56630;BME280;42502;40.732;-74.254;2022-10-16T09:56:22;100495.19;;;23.54;37.09
56630;BME280;42502;40.732;-74.254;2022-10-16T09:58:23;100506.47;;;23.54;37.03
56630;BME280;42502;40.732;-74.254;2022-10-16T10:00:24;100510.47;;;23.53;37.15
56630;BME280;42502;40.732;-74.254;2022-10-16T10:02:37;100503.22;;;23.52;37.07
56630;BME280;42502;40.732;-74.254;2022-10-16T10:04:39;100500.78;;;23.51;37.00
56630;BME280;42502;40.732;-74.254;2022-10-16T10:06:47;100505.59;;;23.50;36.89
56630;BME280;42502;40.732;-74.254;2022-10-16T10:08:59;100509.63;;;23.49;37.01
56630;BME280;42502;40.732;-74.254;2022-10-16T10:11:00;100504.38;;;23.48;36.91
56630;BME280;42502;40.732;-74.254;2022-10-16T10:13:00;100511.97;;;23.47;37.15
56630;BME280;42502;40.732;-74.254;2022-10-16T10:15:06;100513.19;;;23.46;37.05
56630;BME280;42502;40.732;-74.254;2022-10-16T10:19:20;100523.22;;;23.44;37.03
56630;BME280;42502;40.732;-74.254;2022-10-16T10:21:21;100521.56;;;23.42;37.03
56630;BME280;42502;40.732;-74.254;2022-10-16T10:23:22;100529.22;;;23.42;36.95
56630;BME280;42502;40.732;-74.254;2022-10-16T10:27:27;100528.81;;;23.40;37.09
56630;BME280;42502;40.732;-74.254;2022-10-16T10:31:38;100512.84;;;23.24;37.00
56630;BME280;42502;40.732;-74.254;2022-10-16T10:35:45;100535.19;;;23.37;37.14
56630;BME280;42502;40.732;-74.254;2022-10-16T10:42:20;100533.94;;;23.34;37.15
56630;BME280;42502;40.732;-74.254;2022-10-16T10:44:37;100535.94;;;23.34;37.13
56630;BME280;42502;40.732;-74.254;2022-10-16T10:48:47;100536.72;;;23.31;37.09
56630;BME280;42502;40.732;-74.254;2022-10-16T10:51:08;100536.72;;;23.31;37.06
56630;BME280;42502;40.732;-74.254;2022-10-16T10:57:28;100531.81;;;23.28;37.05
56630;BME280;42502;40.732;-74.254;2022-10-16T11:06:12;100552.31;;;23.24;37.21
56630;BME280;42502;40.732;-74.254;2022-10-16T11:08:20;100547.00;;;23.23;37.17
56630;BME280;42502;40.732;-74.254;2022-10-16T11:12:43;100553.41;;;23.20;37.12
56630;BME280;42502;40.732;-74.254;2022-10-16T11:14:56;100538.50;;;23.19;37.04
56630;BME280;42502;40.732;-74.254;2022-10-16T11:17:11;100551.78;;;23.19;37.31
56630;BME280;42502;40.732;-74.254;2022-10-16T11:21:23;100560.63;;;23.17;37.41
56630;BME280;42502;40.732;-74.254;2022-10-16T11:23:31;100552.56;;;23.16;37.64
56630;BME280;42502;40.732;-74.254;2022-10-16T11:25:36;100560.16;;;23.15;37.42
56630;BME280;42502;40.732;-74.254;2022-10-16T11:27:55;100553.72;;;23.15;37.58
56630;BME280;42502;40.732;-74.254;2022-10-16T11:29:58;100556.91;;;23.13;37.60
56630;BME280;42502;40.732;-74.254;2022-10-16T11:32:01;100554.91;;;23.14;37.70